<?xml version="1.0" encoding="UTF-8" standalone="no" ?>
<gpx xmlns="http://www.topografix.com/GPX/1/1" xmlns:xsi="http://www.w3.org/2001/XMLSchema-instance" xsi:schemaLocation="http://www.topografix.com/GPX/1/1 http://www.topografix.com/GPX/1/1/gpx.xsd" version="1.1" creator="VisuGPX - https://www.visugpx.com">
  <metadata>
    <name>luzech 6 descentes</name>
    <desc><![CDATA[parcours typé enduro avec de belles descentes]]></desc>
  </metadata>
  <trk>
    <name><![CDATA[2014-04-01-08-18-57]]></name>
    <trkseg>
      <trkpt lat="44.46055" lon="1.28906">
        <ele>105.118</ele>
        <time>2014-04-01T12:36:51Z</time>
      </trkpt>
      <trkpt lat="44.46037" lon="1.28882">
        <ele>104.098</ele>
        <time>2014-04-01T12:36:58Z</time>
      </trkpt>
      <trkpt lat="44.46035" lon="1.28878">
        <ele>103.648</ele>
        <time>2014-04-01T12:36:59Z</time>
      </trkpt>
      <trkpt lat="44.46041" lon="1.28863">
        <ele>102.858</ele>
        <time>2014-04-01T12:37:03Z</time>
      </trkpt>
      <trkpt lat="44.46047" lon="1.28865">
        <ele>102.929</ele>
        <time>2014-04-01T12:37:05Z</time>
      </trkpt>
      <trkpt lat="44.46059" lon="1.28876">
        <ele>104.469</ele>
        <time>2014-04-01T12:37:09Z</time>
      </trkpt>
      <trkpt lat="44.46079" lon="1.28881">
        <ele>104.489</ele>
        <time>2014-04-01T12:37:14Z</time>
      </trkpt>
      <trkpt lat="44.46091" lon="1.28872">
        <ele>103.949</ele>
        <time>2014-04-01T12:37:18Z</time>
      </trkpt>
      <trkpt lat="44.46093" lon="1.28863">
        <ele>104.719</ele>
        <time>2014-04-01T12:37:20Z</time>
      </trkpt>
      <trkpt lat="44.46104" lon="1.28828">
        <ele>105.079</ele>
        <time>2014-04-01T12:37:26Z</time>
      </trkpt>
      <trkpt lat="44.46109" lon="1.28801">
        <ele>105.559</ele>
        <time>2014-04-01T12:37:31Z</time>
      </trkpt>
      <trkpt lat="44.46111" lon="1.2877">
        <ele>103.777</ele>
        <time>2014-04-01T12:37:36Z</time>
      </trkpt>
      <trkpt lat="44.46128" lon="1.28734">
        <ele>102.808</ele>
        <time>2014-04-01T12:37:42Z</time>
      </trkpt>
      <trkpt lat="44.46136" lon="1.28714">
        <ele>102.078</ele>
        <time>2014-04-01T12:37:45Z</time>
      </trkpt>
      <trkpt lat="44.46148" lon="1.2869">
        <ele>102.328</ele>
        <time>2014-04-01T12:37:49Z</time>
      </trkpt>
      <trkpt lat="44.46163" lon="1.28654">
        <ele>102.988</ele>
        <time>2014-04-01T12:37:55Z</time>
      </trkpt>
      <trkpt lat="44.46165" lon="1.28648">
        <ele>102.678</ele>
        <time>2014-04-01T12:37:56Z</time>
      </trkpt>
      <trkpt lat="44.46192" lon="1.28603">
        <ele>102.438</ele>
        <time>2014-04-01T12:38:04Z</time>
      </trkpt>
      <trkpt lat="44.46207" lon="1.28581">
        <ele>102.968</ele>
        <time>2014-04-01T12:38:09Z</time>
      </trkpt>
      <trkpt lat="44.46226" lon="1.28553">
        <ele>103.288</ele>
        <time>2014-04-01T12:38:15Z</time>
      </trkpt>
      <trkpt lat="44.46249" lon="1.28523">
        <ele>104.919</ele>
        <time>2014-04-01T12:38:22Z</time>
      </trkpt>
      <trkpt lat="44.46274" lon="1.2849">
        <ele>106.669</ele>
        <time>2014-04-01T12:38:29Z</time>
      </trkpt>
      <trkpt lat="44.4628" lon="1.28481">
        <ele>106.89</ele>
        <time>2014-04-01T12:38:31Z</time>
      </trkpt>
      <trkpt lat="44.46303" lon="1.28455">
        <ele>108.23</ele>
        <time>2014-04-01T12:38:37Z</time>
      </trkpt>
      <trkpt lat="44.46313" lon="1.28445">
        <ele>109.01</ele>
        <time>2014-04-01T12:38:39Z</time>
      </trkpt>
      <trkpt lat="44.46323" lon="1.28435">
        <ele>109.8</ele>
        <time>2014-04-01T12:38:41Z</time>
      </trkpt>
      <trkpt lat="44.46346" lon="1.284">
        <ele>108.799</ele>
        <time>2014-04-01T12:38:46Z</time>
      </trkpt>
      <trkpt lat="44.46369" lon="1.28369">
        <ele>108.319</ele>
        <time>2014-04-01T12:38:51Z</time>
      </trkpt>
      <trkpt lat="44.46408" lon="1.28332">
        <ele>110.33</ele>
        <time>2014-04-01T12:38:59Z</time>
      </trkpt>
      <trkpt lat="44.46423" lon="1.2832">
        <ele>112.181</ele>
        <time>2014-04-01T12:39:02Z</time>
      </trkpt>
      <trkpt lat="44.46444" lon="1.28307">
        <ele>114.622</ele>
        <time>2014-04-01T12:39:07Z</time>
      </trkpt>
      <trkpt lat="44.46448" lon="1.28304">
        <ele>114.601</ele>
        <time>2014-04-01T12:39:08Z</time>
      </trkpt>
      <trkpt lat="44.46456" lon="1.28298">
        <ele>114.841</ele>
        <time>2014-04-01T12:39:10Z</time>
      </trkpt>
      <trkpt lat="44.46482" lon="1.28281">
        <ele>111.639</ele>
        <time>2014-04-01T12:39:16Z</time>
      </trkpt>
      <trkpt lat="44.46491" lon="1.28256">
        <ele>108.138</ele>
        <time>2014-04-01T12:39:20Z</time>
      </trkpt>
      <trkpt lat="44.46498" lon="1.28232">
        <ele>105.168</ele>
        <time>2014-04-01T12:39:25Z</time>
      </trkpt>
      <trkpt lat="44.46533" lon="1.28228">
        <ele>104.497</ele>
        <time>2014-04-01T12:39:32Z</time>
      </trkpt>
      <trkpt lat="44.46584" lon="1.28213">
        <ele>109.46</ele>
        <time>2014-04-01T12:39:40Z</time>
      </trkpt>
      <trkpt lat="44.46616" lon="1.28205">
        <ele>110.4</ele>
        <time>2014-04-01T12:39:45Z</time>
      </trkpt>
      <trkpt lat="44.46669" lon="1.28199">
        <ele>111.58</ele>
        <time>2014-04-01T12:39:54Z</time>
      </trkpt>
      <trkpt lat="44.46706" lon="1.28202">
        <ele>110.559</ele>
        <time>2014-04-01T12:39:59Z</time>
      </trkpt>
      <trkpt lat="44.4675" lon="1.28203">
        <ele>109.759</ele>
        <time>2014-04-01T12:40:05Z</time>
      </trkpt>
      <trkpt lat="44.46799" lon="1.28205">
        <ele>108.508</ele>
        <time>2014-04-01T12:40:12Z</time>
      </trkpt>
      <trkpt lat="44.46835" lon="1.28202">
        <ele>106.778</ele>
        <time>2014-04-01T12:40:17Z</time>
      </trkpt>
      <trkpt lat="44.46877" lon="1.28199">
        <ele>105.517</ele>
        <time>2014-04-01T12:40:23Z</time>
      </trkpt>
      <trkpt lat="44.46917" lon="1.28197">
        <ele>108.059</ele>
        <time>2014-04-01T12:40:29Z</time>
      </trkpt>
      <trkpt lat="44.4696" lon="1.28195">
        <ele>110.101</ele>
        <time>2014-04-01T12:40:36Z</time>
      </trkpt>
      <trkpt lat="44.46991" lon="1.28193">
        <ele>107.351</ele>
        <time>2014-04-01T12:40:41Z</time>
      </trkpt>
      <trkpt lat="44.47037" lon="1.28189">
        <ele>105.76</ele>
        <time>2014-04-01T12:40:48Z</time>
      </trkpt>
      <trkpt lat="44.47081" lon="1.28182">
        <ele>104.791</ele>
        <time>2014-04-01T12:40:55Z</time>
      </trkpt>
      <trkpt lat="44.47127" lon="1.28177">
        <ele>103.781</ele>
        <time>2014-04-01T12:41:02Z</time>
      </trkpt>
      <trkpt lat="44.47172" lon="1.28176">
        <ele>103.601</ele>
        <time>2014-04-01T12:41:09Z</time>
      </trkpt>
      <trkpt lat="44.47213" lon="1.28172">
        <ele>104.361</ele>
        <time>2014-04-01T12:41:15Z</time>
      </trkpt>
      <trkpt lat="44.4722" lon="1.28171">
        <ele>104.471</ele>
        <time>2014-04-01T12:41:16Z</time>
      </trkpt>
      <trkpt lat="44.47244" lon="1.28163">
        <ele>104.501</ele>
        <time>2014-04-01T12:41:20Z</time>
      </trkpt>
      <trkpt lat="44.47254" lon="1.28159">
        <ele>104.952</ele>
        <time>2014-04-01T12:41:22Z</time>
      </trkpt>
      <trkpt lat="44.47299" lon="1.28147">
        <ele>104.722</ele>
        <time>2014-04-01T12:41:31Z</time>
      </trkpt>
      <trkpt lat="44.47341" lon="1.28134">
        <ele>105.672</ele>
        <time>2014-04-01T12:41:39Z</time>
      </trkpt>
      <trkpt lat="44.47352" lon="1.28134">
        <ele>105.872</ele>
        <time>2014-04-01T12:41:41Z</time>
      </trkpt>
      <trkpt lat="44.47401" lon="1.28125">
        <ele>104.092</ele>
        <time>2014-04-01T12:41:49Z</time>
      </trkpt>
      <trkpt lat="44.47454" lon="1.28118">
        <ele>103.533</ele>
        <time>2014-04-01T12:41:58Z</time>
      </trkpt>
      <trkpt lat="44.47485" lon="1.28104">
        <ele>104.822</ele>
        <time>2014-04-01T12:42:04Z</time>
      </trkpt>
      <trkpt lat="44.47489" lon="1.28103">
        <ele>105.142</ele>
        <time>2014-04-01T12:42:05Z</time>
      </trkpt>
      <trkpt lat="44.47501" lon="1.28116">
        <ele>106.252</ele>
        <time>2014-04-01T12:42:09Z</time>
      </trkpt>
      <trkpt lat="44.47522" lon="1.28159">
        <ele>106.832</ele>
        <time>2014-04-01T12:42:16Z</time>
      </trkpt>
      <trkpt lat="44.47532" lon="1.28179">
        <ele>106.982</ele>
        <time>2014-04-01T12:42:19Z</time>
      </trkpt>
      <trkpt lat="44.47554" lon="1.28196">
        <ele>107.652</ele>
        <time>2014-04-01T12:42:23Z</time>
      </trkpt>
      <trkpt lat="44.4756" lon="1.28197">
        <ele>107.672</ele>
        <time>2014-04-01T12:42:24Z</time>
      </trkpt>
      <trkpt lat="44.47629" lon="1.28193">
        <ele>106.255</ele>
        <time>2014-04-01T12:42:35Z</time>
      </trkpt>
      <trkpt lat="44.47681" lon="1.2819">
        <ele>105.164</ele>
        <time>2014-04-01T12:42:44Z</time>
      </trkpt>
      <trkpt lat="44.47692" lon="1.28189">
        <ele>105.394</ele>
        <time>2014-04-01T12:42:46Z</time>
      </trkpt>
      <trkpt lat="44.4771" lon="1.28201">
        <ele>105.704</ele>
        <time>2014-04-01T12:42:50Z</time>
      </trkpt>
      <trkpt lat="44.47711" lon="1.28208">
        <ele>105.494</ele>
        <time>2014-04-01T12:42:51Z</time>
      </trkpt>
      <trkpt lat="44.47724" lon="1.28268">
        <ele>104.324</ele>
        <time>2014-04-01T12:42:59Z</time>
      </trkpt>
      <trkpt lat="44.47738" lon="1.28335">
        <ele>104.294</ele>
        <time>2014-04-01T12:43:08Z</time>
      </trkpt>
      <trkpt lat="44.4775" lon="1.28395">
        <ele>104.184</ele>
        <time>2014-04-01T12:43:17Z</time>
      </trkpt>
      <trkpt lat="44.47759" lon="1.28437">
        <ele>105.644</ele>
        <time>2014-04-01T12:43:23Z</time>
      </trkpt>
      <trkpt lat="44.47779" lon="1.28513">
        <ele>106.094</ele>
        <time>2014-04-01T12:43:34Z</time>
      </trkpt>
      <trkpt lat="44.47795" lon="1.28575">
        <ele>106.895</ele>
        <time>2014-04-01T12:43:43Z</time>
      </trkpt>
      <trkpt lat="44.47785" lon="1.28585">
        <ele>107.475</ele>
        <time>2014-04-01T12:43:47Z</time>
      </trkpt>
      <trkpt lat="44.47748" lon="1.28588">
        <ele>106.063</ele>
        <time>2014-04-01T12:43:54Z</time>
      </trkpt>
      <trkpt lat="44.47742" lon="1.28589">
        <ele>105.714</ele>
        <time>2014-04-01T12:43:55Z</time>
      </trkpt>
      <trkpt lat="44.4771" lon="1.28583">
        <ele>106.655</ele>
        <time>2014-04-01T12:44:01Z</time>
      </trkpt>
      <trkpt lat="44.47678" lon="1.28575">
        <ele>109.166</ele>
        <time>2014-04-01T12:44:09Z</time>
      </trkpt>
    </trkseg>
  </trk>
</gpx>